sensor_id;sensor_type;location;lat;lon;timestamp;P1;durP1;ratioP1;P2;durP2;ratioP2
8464;SDS011;4269;52.458;13.430;2022-08-19T00:01:26;5.70;;;3.60;;
8464;SDS011;4269;52.458;13.430;2022-08-19T00:03:54;6.47;;;3.37;;
8464;SDS011;4269;52.458;13.430;2022-08-19T00:06:24;4.90;;;3.97;;
8464;SDS011;4269;52.458;13.430;2022-08-19T00:08:51;5.90;;;4.00;;
8464;SDS011;4269;52.458;13.430;2022-08-19T00:11:17;4.77;;;3.73;;
8464;SDS011;4269;52.458;13.430;2022-08-19T00:13:43;4.07;;;3.60;;
8464;SDS011;4269;52.458;13.430;2022-08-19T00:16:10;6.27;;;3.57;;
8464;SDS011;4269;52.458;13.430;2022-08-19T00:18:36;5.47;;;3.37;;
8464;SDS011;4269;52.458;13.430;2022-08-19T00:21:01;6.27;;;3.40;;
8464;SDS011;4269;52.458;13.430;2022-08-19T00:23:28;5.97;;;4.07;;
8464;SDS011;4269;52.458;13.430;2022-08-19T00:25:54;5.37;;;4.40;;
8464;SDS011;4269;52.458;13.430;2022-08-19T00:28:19;4.27;;;3.43;;
8464;SDS011;4269;52.458;13.430;2022-08-19T00:30:45;5.40;;;4.07;;
8464;SDS011;4269;52.458;13.430;2022-08-19T00:33:11;6.87;;;3.80;;
8464;SDS011;4269;52.458;13.430;2022-08-19T00:35:36;4.13;;;3.27;;
8464;SDS011;4269;52.458;13.430;2022-08-19T00:38:03;7.53;;;4.23;;
8464;SDS011;4269;52.458;13.430;2022-08-19T00:40:30;4.97;;;3.57;;
8464;SDS011;4269;52.458;13.430;2022-08-19T00:42:56;6.83;;;4.20;;
8464;SDS011;4269;52.458;13.430;2022-08-19T00:45:23;5.43;;;3.63;;
8464;SDS011;4269;52.458;13.430;2022-08-19T00:47:50;4.60;;;3.23;;
8464;SDS011;4269;52.458;13.430;2022-08-19T00:50:18;4.23;;;3.13;;
8464;SDS011;4269;52.458;13.430;2022-08-19T00:52:46;7.63;;;3.80;;
8464;SDS011;4269;52.458;13.430;2022-08-19T00:55:19;7.73;;;3.77;;
8464;SDS011;4269;52.458;13.430;2022-08-19T00:57:53;4.23;;;3.40;;
8464;SDS011;4269;52.458;13.430;2022-08-19T01:00:24;6.20;;;3.27;;
8464;SDS011;4269;52.458;13.430;2022-08-19T01:02:51;4.83;;;3.57;;
8464;SDS011;4269;52.458;13.430;2022-08-19T01:05:18;5.17;;;3.80;;
8464;SDS011;4269;52.458;13.430;2022-08-19T01:07:47;5.63;;;4.10;;
8464;SDS011;4269;52.458;13.430;2022-08-19T01:10:15;3.23;;;2.70;;
8464;SDS011;4269;52.458;13.430;2022-08-19T01:12:43;5.43;;;3.43;;
8464;SDS011;4269;52.458;13.430;2022-08-19T01:15:11;8.07;;;4.13;;
8464;SDS011;4269;52.458;13.430;2022-08-19T01:17:38;4.93;;;4.20;;
8464;SDS011;4269;52.458;13.430;2022-08-19T01:20:05;4.93;;;3.50;;
8464;SDS011;4269;52.458;13.430;2022-08-19T01:22:35;5.30;;;3.40;;
8464;SDS011;4269;52.458;13.430;2022-08-19T01:25:08;5.97;;;3.57;;
8464;SDS011;4269;52.458;13.430;2022-08-19T01:27:40;4.97;;;3.53;;
8464;SDS011;4269;52.458;13.430;2022-08-19T01:30:17;6.33;;;3.53;;
8464;SDS011;4269;52.458;13.430;2022-08-19T01:32:45;6.70;;;4.00;;
8464;SDS011;4269;52.458;13.430;2022-08-19T01:35:11;5.07;;;3.37;;
8464;SDS011;4269;52.458;13.430;2022-08-19T01:37:42;5.47;;;3.83;;
8464;SDS011;4269;52.458;13.430;2022-08-19T01:40:37;4.77;;;3.30;;
8464;SDS011;4269;52.458;13.430;2022-08-19T01:43:05;5.03;;;3.63;;
8464;SDS011;4269;52.458;13.430;2022-08-19T01:45:31;10.10;;;7.83;;
8464;SDS011;4269;52.458;13.430;2022-08-19T01:47:59;5.67;;;4.20;;
8464;SDS011;4269;52.458;13.430;2022-08-19T01:50:25;7.40;;;4.67;;
8464;SDS011;4269;52.458;13.430;2022-08-19T01:52:51;5.13;;;3.87;;
8464;SDS011;4269;52.458;13.430;2022-08-19T01:55:18;5.50;;;4.40;;
8464;SDS011;4269;52.458;13.430;2022-08-19T01:57:47;5.17;;;3.20;;
8464;SDS011;4269;52.458;13.430;2022-08-19T02:00:16;3.67;;;3.07;;
8464;SDS011;4269;52.458;13.430;2022-08-19T02:02:43;4.90;;;3.67;;
8464;SDS011;4269;52.458;13.430;2022-08-19T02:05:09;4.13;;;2.97;;
8464;SDS011;4269;52.458;13.430;2022-08-19T02:07:37;5.63;;;4.23;;
8464;SDS011;4269;52.458;13.430;2022-08-19T02:10:05;5.83;;;3.23;;
8464;SDS011;4269;52.458;13.430;2022-08-19T02:12:33;6.27;;;3.97;;
8464;SDS011;4269;52.458;13.430;2022-08-19T02:14:59;5.37;;;3.17;;
8464;SDS011;4269;52.458;13.430;2022-08-19T02:17:26;3.63;;;2.90;;
8464;SDS011;4269;52.458;13.430;2022-08-19T02:19:53;3.27;;;2.47;;
8464;SDS011;4269;52.458;13.430;2022-08-19T02:22:19;3.53;;;2.77;;
8464;SDS011;4269;52.458;13.430;2022-08-19T02:24:45;3.13;;;2.57;;
8464;SDS011;4269;52.458;13.430;2022-08-19T02:27:12;6.20;;;2.80;;
8464;SDS011;4269;52.458;13.430;2022-08-19T02:29:38;3.77;;;2.60;;
8464;SDS011;4269;52.458;13.430;2022-08-19T02:32:05;3.97;;;2.50;;
8464;SDS011;4269;52.458;13.430;2022-08-19T02:34:32;3.80;;;3.27;;
8464;SDS011;4269;52.458;13.430;2022-08-19T02:36:58;3.97;;;3.43;;
8464;SDS011;4269;52.458;13.430;2022-08-19T02:39:23;3.73;;;3.37;;
8464;SDS011;4269;52.458;13.430;2022-08-19T02:41:49;4.13;;;3.07;;
8464;SDS011;4269;52.458;13.430;2022-08-19T02:44:16;4.13;;;3.17;;
8464;SDS011;4269;52.458;13.430;2022-08-19T02:46:44;11.70;;;3.53;;
8464;SDS011;4269;52.458;13.430;2022-08-19T02:49:11;3.83;;;3.10;;
8464;SDS011;4269;52.458;13.430;2022-08-19T02:51:38;4.30;;;2.80;;
8464;SDS011;4269;52.458;13.430;2022-08-19T02:54:07;4.37;;;3.10;;
8464;SDS011;4269;52.458;13.430;2022-08-19T02:56:34;5.47;;;3.47;;
8464;SDS011;4269;52.458;13.430;2022-08-19T02:59:01;5.00;;;3.37;;
8464;SDS011;4269;52.458;13.430;2022-08-19T03:01:32;3.90;;;2.60;;
8464;SDS011;4269;52.458;13.430;2022-08-19T03:03:58;6.23;;;3.20;;
8464;SDS011;4269;52.458;13.430;2022-08-19T03:06:26;4.73;;;3.17;;
8464;SDS011;4269;52.458;13.430;2022-08-19T03:09:12;4.80;;;3.27;;
8464;SDS011;4269;52.458;13.430;2022-08-19T03:11:38;5.80;;;4.17;;
8464;SDS011;4269;52.458;13.430;2022-08-19T03:14:05;4.50;;;3.60;;
8464;SDS011;4269;52.458;13.430;2022-08-19T03:16:33;7.37;;;4.20;;
8464;SDS011;4269;52.458;13.430;2022-08-19T03:19:01;5.90;;;3.88;;
8464;SDS011;4269;52.458;13.430;2022-08-19T03:21:28;5.70;;;4.00;;
8464;SDS011;4269;52.458;13.430;2022-08-19T03:23:56;4.63;;;3.40;;
8464;SDS011;4269;52.458;13.430;2022-08-19T03:26:23;6.00;;;3.50;;
8464;SDS011;4269;52.458;13.430;2022-08-19T03:28:49;4.60;;;3.23;;
8464;SDS011;4269;52.458;13.430;2022-08-19T03:31:19;4.10;;;3.37;;
8464;SDS011;4269;52.458;13.430;2022-08-19T03:33:48;4.40;;;2.90;;
8464;SDS011;4269;52.458;13.430;2022-08-19T03:36:17;8.20;;;3.67;;
8464;SDS011;4269;52.458;13.430;2022-08-19T03:38:46;4.37;;;3.10;;
8464;SDS011;4269;52.458;13.430;2022-08-19T03:41:14;3.93;;;2.90;;
8464;SDS011;4269;52.458;13.430;2022-08-19T03:43:43;4.87;;;3.67;;
8464;SDS011;4269;52.458;13.430;2022-08-19T03:46:14;4.77;;;3.33;;
8464;SDS011;4269;52.458;13.430;2022-08-19T03:48:42;5.00;;;3.30;;
8464;SDS011;4269;52.458;13.430;2022-08-19T03:51:15;4.53;;;3.20;;
8464;SDS011;4269;52.458;13.430;2022-08-19T03:53:42;4.70;;;3.20;;
8464;SDS011;4269;52.458;13.430;2022-08-19T03:56:08;6.57;;;3.30;;
8464;SDS011;4269;52.458;13.430;2022-08-19T03:58:35;6.03;;;3.70;;
8464;SDS011;4269;52.458;13.430;2022-08-19T04:01:02;4.20;;;3.60;;
8464;SDS011;4269;52.458;13.430;2022-08-19T04:03:28;3.93;;;2.90;;
8464;SDS011;4269;52.458;13.430;2022-08-19T04:05:54;4.13;;;3.10;;
8464;SDS011;4269;52.458;13.430;2022-08-19T04:08:20;7.57;;;3.20;;
8464;SDS011;4269;52.458;13.430;2022-08-19T04:10:47;4.10;;;3.27;;
8464;SDS011;4269;52.458;13.430;2022-08-19T04:13:14;5.43;;;3.40;;
8464;SDS011;4269;52.458;13.430;2022-08-19T04:15:42;4.37;;;3.27;;
8464;SDS011;4269;52.458;13.430;2022-08-19T04:18:09;4.37;;;3.43;;
8464;SDS011;4269;52.458;13.430;2022-08-19T04:20:42;5.97;;;3.53;;
8464;SDS011;4269;52.458;13.430;2022-08-19T04:23:09;4.23;;;3.57;;
8464;SDS011;4269;52.458;13.430;2022-08-19T04:25:39;4.00;;;3.60;;
8464;SDS011;4269;52.458;13.430;2022-08-19T04:28:06;5.30;;;3.80;;
8464;SDS011;4269;52.458;13.430;2022-08-19T04:30:41;7.97;;;3.70;;
8464;SDS011;4269;52.458;13.430;2022-08-19T04:33:09;3.67;;;2.87;;
8464;SDS011;4269;52.458;13.430;2022-08-19T04:35:37;4.07;;;3.63;;
8464;SDS011;4269;52.458;13.430;2022-08-19T04:38:05;5.57;;;3.23;;
8464;SDS011;4269;52.458;13.430;2022-08-19T04:40:31;3.47;;;2.90;;
8464;SDS011;4269;52.458;13.430;2022-08-19T04:43:16;4.40;;;3.00;;
8464;SDS011;4269;52.458;13.430;2022-08-19T04:45:43;5.23;;;4.07;;
8464;SDS011;4269;52.458;13.430;2022-08-19T04:48:09;5.10;;;4.07;;
8464;SDS011;4269;52.458;13.430;2022-08-19T04:50:35;6.37;;;4.10;;
8464;SDS011;4269;52.458;13.430;2022-08-19T04:53:01;3.43;;;2.93;;
8464;SDS011;4269;52.458;13.430;2022-08-19T04:55:26;4.90;;;3.73;;
8464;SDS011;4269;52.458;13.430;2022-08-19T04:57:53;7.73;;;3.77;;
8464;SDS011;4269;52.458;13.430;2022-08-19T05:00:19;4.40;;;3.13;;
8464;SDS011;4269;52.458;13.430;2022-08-19T05:02:44;5.00;;;3.33;;
8464;SDS011;4269;52.458;13.430;2022-08-19T05:05:10;3.77;;;3.10;;
8464;SDS011;4269;52.458;13.430;2022-08-19T05:07:36;6.27;;;4.07;;
8464;SDS011;4269;52.458;13.430;2022-08-19T05:10:03;5.60;;;3.10;;
8464;SDS011;4269;52.458;13.430;2022-08-19T05:12:29;4.67;;;3.57;;
8464;SDS011;4269;52.458;13.430;2022-08-19T05:14:56;5.23;;;2.97;;
8464;SDS011;4269;52.458;13.430;2022-08-19T05:17:22;5.10;;;3.93;;
8464;SDS011;4269;52.458;13.430;2022-08-19T05:19:48;7.73;;;3.50;;
8464;SDS011;4269;52.458;13.430;2022-08-19T05:22:33;5.10;;;3.57;;
8464;SDS011;4269;52.458;13.430;2022-08-19T05:25:03;4.27;;;3.20;;
8464;SDS011;4269;52.458;13.430;2022-08-19T05:27:31;5.13;;;3.13;;
8464;SDS011;4269;52.458;13.430;2022-08-19T05:29:57;3.50;;;3.13;;
8464;SDS011;4269;52.458;13.430;2022-08-19T05:32:23;5.13;;;4.10;;
8464;SDS011;4269;52.458;13.430;2022-08-19T05:34:49;4.40;;;3.00;;
8464;SDS011;4269;52.458;13.430;2022-08-19T05:37:14;4.47;;;3.80;;
8464;SDS011;4269;52.458;13.430;2022-08-19T05:39:40;5.23;;;3.50;;
8464;SDS011;4269;52.458;13.430;2022-08-19T05:42:07;4.37;;;3.50;;
8464;SDS011;4269;52.458;13.430;2022-08-19T05:44:36;4.13;;;3.27;;
8464;SDS011;4269;52.458;13.430;2022-08-19T05:47:08;4.63;;;3.50;;
8464;SDS011;4269;52.458;13.430;2022-08-19T05:49:35;6.17;;;4.87;;
8464;SDS011;4269;52.458;13.430;2022-08-19T05:52:06;5.60;;;3.03;;
8464;SDS011;4269;52.458;13.430;2022-08-19T05:54:34;5.83;;;3.00;;
8464;SDS011;4269;52.458;13.430;2022-08-19T05:57:05;4.37;;;3.83;;
8464;SDS011;4269;52.458;13.430;2022-08-19T05:59:31;7.37;;;4.33;;
8464;SDS011;4269;52.458;13.430;2022-08-19T06:02:00;5.67;;;3.70;;
8464;SDS011;4269;52.458;13.430;2022-08-19T06:04:26;4.97;;;3.73;;
8464;SDS011;4269;52.458;13.430;2022-08-19T06:06:52;7.17;;;3.47;;
8464;SDS011;4269;52.458;13.430;2022-08-19T06:09:19;3.83;;;3.37;;
8464;SDS011;4269;52.458;13.430;2022-08-19T06:11:47;4.80;;;4.13;;
8464;SDS011;4269;52.458;13.430;2022-08-19T06:14:18;5.27;;;3.80;;
8464;SDS011;4269;52.458;13.430;2022-08-19T06:16:46;4.20;;;3.43;;
8464;SDS011;4269;52.458;13.430;2022-08-19T06:19:13;6.00;;;3.10;;
8464;SDS011;4269;52.458;13.430;2022-08-19T06:21:43;7.03;;;4.07;;
8464;SDS011;4269;52.458;13.430;2022-08-19T06:24:11;5.90;;;3.17;;
8464;SDS011;4269;52.458;13.430;2022-08-19T06:26:38;4.93;;;3.57;;
8464;SDS011;4269;52.458;13.430;2022-08-19T06:29:05;5.47;;;4.43;;
8464;SDS011;4269;52.458;13.430;2022-08-19T06:31:32;4.87;;;3.40;;
8464;SDS011;4269;52.458;13.430;2022-08-19T06:34:00;5.23;;;3.20;;
8464;SDS011;4269;52.458;13.430;2022-08-19T06:36:30;5.43;;;4.57;;
8464;SDS011;4269;52.458;13.430;2022-08-19T06:38:59;6.07;;;4.30;;
8464;SDS011;4269;52.458;13.430;2022-08-19T06:41:27;6.03;;;4.03;;
8464;SDS011;4269;52.458;13.430;2022-08-19T06:43:54;5.90;;;4.03;;
8464;SDS011;4269;52.458;13.430;2022-08-19T06:46:20;5.70;;;4.53;;
8464;SDS011;4269;52.458;13.430;2022-08-19T06:48:47;6.27;;;3.63;;
8464;SDS011;4269;52.458;13.430;2022-08-19T06:51:17;5.03;;;3.90;;
8464;SDS011;4269;52.458;13.430;2022-08-19T06:53:46;8.15;;;4.60;;
8464;SDS011;4269;52.458;13.430;2022-08-19T06:56:13;4.67;;;4.13;;
8464;SDS011;4269;52.458;13.430;2022-08-19T06:58:47;5.50;;;4.70;;
8464;SDS011;4269;52.458;13.430;2022-08-19T07:01:16;7.03;;;4.60;;
8464;SDS011;4269;52.458;13.430;2022-08-19T07:03:41;5.93;;;4.30;;
8464;SDS011;4269;52.458;13.430;2022-08-19T07:06:09;6.17;;;4.70;;
8464;SDS011;4269;52.458;13.430;2022-08-19T07:08:36;5.10;;;4.10;;
8464;SDS011;4269;52.458;13.430;2022-08-19T07:11:09;6.50;;;4.23;;
8464;SDS011;4269;52.458;13.430;2022-08-19T07:13:37;5.87;;;4.30;;
8464;SDS011;4269;52.458;13.430;2022-08-19T07:16:04;5.37;;;4.40;;
8464;SDS011;4269;52.458;13.430;2022-08-19T07:18:34;6.00;;;4.63;;
8464;SDS011;4269;52.458;13.430;2022-08-19T07:21:04;5.27;;;3.53;;
8464;SDS011;4269;52.458;13.430;2022-08-19T07:23:31;7.07;;;3.97;;
8464;SDS011;4269;52.458;13.430;2022-08-19T07:25:57;5.80;;;4.53;;
8464;SDS011;4269;52.458;13.430;2022-08-19T07:28:22;5.87;;;4.23;;
8464;SDS011;4269;52.458;13.430;2022-08-19T07:30:49;7.70;;;4.07;;
8464;SDS011;4269;52.458;13.430;2022-08-19T07:33:15;5.80;;;4.20;;
8464;SDS011;4269;52.458;13.430;2022-08-19T07:35:43;6.03;;;4.28;;
8464;SDS011;4269;52.458;13.430;2022-08-19T07:38:09;6.17;;;4.30;;
8464;SDS011;4269;52.458;13.430;2022-08-19T07:40:35;5.03;;;4.00;;
8464;SDS011;4269;52.458;13.430;2022-08-19T07:43:01;9.07;;;4.10;;
8464;SDS011;4269;52.458;13.430;2022-08-19T07:45:27;7.83;;;4.53;;
8464;SDS011;4269;52.458;13.430;2022-08-19T07:47:53;9.00;;;3.80;;
8464;SDS011;4269;52.458;13.430;2022-08-19T07:50:20;6.13;;;4.70;;
8464;SDS011;4269;52.458;13.430;2022-08-19T07:52:46;5.73;;;3.73;;
8464;SDS011;4269;52.458;13.430;2022-08-19T07:55:14;8.33;;;4.20;;
8464;SDS011;4269;52.458;13.430;2022-08-19T07:57:40;6.07;;;4.77;;
8464;SDS011;4269;52.458;13.430;2022-08-19T08:00:06;7.40;;;4.77;;
8464;SDS011;4269;52.458;13.430;2022-08-19T08:02:32;5.50;;;4.43;;
8464;SDS011;4269;52.458;13.430;2022-08-19T08:04:57;8.87;;;5.70;;
8464;SDS011;4269;52.458;13.430;2022-08-19T08:07:42;5.67;;;4.40;;
8464;SDS011;4269;52.458;13.430;2022-08-19T08:10:26;8.90;;;4.70;;
8464;SDS011;4269;52.458;13.430;2022-08-19T08:12:51;6.13;;;4.90;;
8464;SDS011;4269;52.458;13.430;2022-08-19T08:15:17;5.43;;;4.40;;
8464;SDS011;4269;52.458;13.430;2022-08-19T08:17:43;11.40;;;5.33;;
8464;SDS011;4269;52.458;13.430;2022-08-19T08:20:10;6.87;;;4.83;;
8464;SDS011;4269;52.458;13.430;2022-08-19T08:22:36;6.00;;;4.50;;
8464;SDS011;4269;52.458;13.430;2022-08-19T08:25:21;6.43;;;4.07;;
8464;SDS011;4269;52.458;13.430;2022-08-19T08:27:48;5.77;;;4.70;;
8464;SDS011;4269;52.458;13.430;2022-08-19T08:30:24;4.80;;;4.30;;
8464;SDS011;4269;52.458;13.430;2022-08-19T08:32:51;8.13;;;5.93;;
8464;SDS011;4269;52.458;13.430;2022-08-19T08:35:17;7.60;;;4.83;;
8464;SDS011;4269;52.458;13.430;2022-08-19T08:37:46;7.37;;;4.57;;
8464;SDS011;4269;52.458;13.430;2022-08-19T08:40:38;5.80;;;4.83;;
8464;SDS011;4269;52.458;13.430;2022-08-19T08:43:23;6.73;;;4.80;;
8464;SDS011;4269;52.458;13.430;2022-08-19T08:46:03;7.07;;;5.33;;
8464;SDS011;4269;52.458;13.430;2022-08-19T08:51:07;15.37;;;5.10;;
8464;SDS011;4269;52.458;13.430;2022-08-19T08:53:37;7.50;;;4.80;;
8464;SDS011;4269;52.458;13.430;2022-08-19T08:56:04;6.80;;;4.93;;
8464;SDS011;4269;52.458;13.430;2022-08-19T09:01:08;9.00;;;5.17;;
8464;SDS011;4269;52.458;13.430;2022-08-19T09:03:36;10.73;;;4.70;;
8464;SDS011;4269;52.458;13.430;2022-08-19T09:06:04;8.83;;;6.83;;
8464;SDS011;4269;52.458;13.430;2022-08-19T09:11:18;7.67;;;6.23;;
8464;SDS011;4269;52.458;13.430;2022-08-19T09:14:01;7.00;;;5.15;;
8464;SDS011;4269;52.458;13.430;2022-08-19T09:16:29;7.23;;;5.27;;
8464;SDS011;4269;52.458;13.430;2022-08-19T09:19:06;8.17;;;4.97;;
8464;SDS011;4269;52.458;13.430;2022-08-19T09:21:33;8.27;;;5.60;;
8464;SDS011;4269;52.458;13.430;2022-08-19T09:24:01;7.67;;;5.40;;
8464;SDS011;4269;52.458;13.430;2022-08-19T09:26:28;6.17;;;5.23;;
8464;SDS011;4269;52.458;13.430;2022-08-19T09:28:55;9.17;;;5.87;;
8464;SDS011;4269;52.458;13.430;2022-08-19T09:31:23;9.50;;;6.23;;
8464;SDS011;4269;52.458;13.430;2022-08-19T09:33:50;8.80;;;5.53;;
8464;SDS011;4269;52.458;13.430;2022-08-19T09:36:21;6.05;;;4.97;;
8464;SDS011;4269;52.458;13.430;2022-08-19T09:38:48;6.37;;;4.67;;
8464;SDS011;4269;52.458;13.430;2022-08-19T09:41:15;7.90;;;5.13;;
8464;SDS011;4269;52.458;13.430;2022-08-19T09:43:44;8.55;;;5.57;;
8464;SDS011;4269;52.458;13.430;2022-08-19T09:46:12;7.57;;;5.65;;
8464;SDS011;4269;52.458;13.430;2022-08-19T09:48:38;9.10;;;4.80;;
8464;SDS011;4269;52.458;13.430;2022-08-19T09:51:07;9.07;;;6.00;;
8464;SDS011;4269;52.458;13.430;2022-08-19T09:53:34;6.95;;;5.35;;
8464;SDS011;4269;52.458;13.430;2022-08-19T09:56:00;7.67;;;5.50;;
8464;SDS011;4269;52.458;13.430;2022-08-19T09:58:27;7.60;;;6.07;;
8464;SDS011;4269;52.458;13.430;2022-08-19T10:00:55;6.03;;;5.13;;
8464;SDS011;4269;52.458;13.430;2022-08-19T10:03:23;9.60;;;6.00;;
8464;SDS011;4269;52.458;13.430;2022-08-19T10:05:50;7.10;;;5.10;;
8464;SDS011;4269;52.458;13.430;2022-08-19T10:08:20;6.80;;;5.37;;
8464;SDS011;4269;52.458;13.430;2022-08-19T10:10:54;7.93;;;5.53;;
8464;SDS011;4269;52.458;13.430;2022-08-19T10:13:21;6.60;;;5.13;;
8464;SDS011;4269;52.458;13.430;2022-08-19T10:15:50;6.97;;;4.93;;
8464;SDS011;4269;52.458;13.430;2022-08-19T10:18:19;8.35;;;6.25;;
8464;SDS011;4269;52.458;13.430;2022-08-19T10:20:46;5.77;;;4.40;;
8464;SDS011;4269;52.458;13.430;2022-08-19T10:23:13;6.27;;;4.40;;
8464;SDS011;4269;52.458;13.430;2022-08-19T10:25:40;9.00;;;4.70;;
8464;SDS011;4269;52.458;13.430;2022-08-19T10:28:06;9.73;;;4.40;;
8464;SDS011;4269;52.458;13.430;2022-08-19T10:30:32;7.23;;;5.20;;
8464;SDS011;4269;52.458;13.430;2022-08-19T10:32:58;7.73;;;5.43;;
8464;SDS011;4269;52.458;13.430;2022-08-19T10:35:24;8.02;;;5.18;;
8464;SDS011;4269;52.458;13.430;2022-08-19T10:37:52;7.00;;;5.10;;
8464;SDS011;4269;52.458;13.430;2022-08-19T10:40:18;9.03;;;5.00;;
8464;SDS011;4269;52.458;13.430;2022-08-19T10:42:44;5.80;;;4.07;;
8464;SDS011;4269;52.458;13.430;2022-08-19T10:45:10;7.80;;;4.90;;
8464;SDS011;4269;52.458;13.430;2022-08-19T10:47:36;6.43;;;4.67;;
8464;SDS011;4269;52.458;13.430;2022-08-19T10:50:03;6.60;;;4.43;;
8464;SDS011;4269;52.458;13.430;2022-08-19T10:52:48;5.33;;;4.23;;
8464;SDS011;4269;52.458;13.430;2022-08-19T10:55:15;6.80;;;3.83;;
8464;SDS011;4269;52.458;13.430;2022-08-19T10:58:00;5.17;;;4.13;;
8464;SDS011;4269;52.458;13.430;2022-08-19T11:00:26;10.40;;;5.63;;
8464;SDS011;4269;52.458;13.430;2022-08-19T11:02:52;6.90;;;4.50;;
8464;SDS011;4269;52.458;13.430;2022-08-19T11:05:18;6.60;;;4.50;;
8464;SDS011;4269;52.458;13.430;2022-08-19T11:07:44;6.07;;;4.73;;
8464;SDS011;4269;52.458;13.430;2022-08-19T11:10:11;7.30;;;4.57;;
8464;SDS011;4269;52.458;13.430;2022-08-19T11:12:39;7.53;;;4.10;;
8464;SDS011;4269;52.458;13.430;2022-08-19T11:15:06;6.17;;;4.63;;
8464;SDS011;4269;52.458;13.430;2022-08-19T11:17:33;6.67;;;4.47;;
8464;SDS011;4269;52.458;13.430;2022-08-19T11:20:00;6.07;;;4.63;;
8464;SDS011;4269;52.458;13.430;2022-08-19T11:22:29;11.13;;;4.67;;
8464;SDS011;4269;52.458;13.430;2022-08-19T11:24:55;5.13;;;4.20;;
8464;SDS011;4269;52.458;13.430;2022-08-19T11:27:21;7.70;;;4.43;;
8464;SDS011;4269;52.458;13.430;2022-08-19T11:29:46;6.00;;;4.37;;
8464;SDS011;4269;52.458;13.430;2022-08-19T11:32:12;6.67;;;4.43;;
8464;SDS011;4269;52.458;13.430;2022-08-19T11:34:38;6.20;;;4.33;;
8464;SDS011;4269;52.458;13.430;2022-08-19T11:37:04;7.40;;;3.90;;
8464;SDS011;4269;52.458;13.430;2022-08-19T11:39:31;6.70;;;4.20;;
8464;SDS011;4269;52.458;13.430;2022-08-19T11:41:59;6.60;;;4.20;;
8464;SDS011;4269;52.458;13.430;2022-08-19T11:44:26;5.03;;;3.87;;
8464;SDS011;4269;52.458;13.430;2022-08-19T11:46:55;6.23;;;4.03;;
8464;SDS011;4269;52.458;13.430;2022-08-19T11:49:21;7.57;;;4.07;;
8464;SDS011;4269;52.458;13.430;2022-08-19T11:51:47;6.83;;;4.30;;
8464;SDS011;4269;52.458;13.430;2022-08-19T11:54:14;6.17;;;4.73;;
8464;SDS011;4269;52.458;13.430;2022-08-19T11:56:41;8.77;;;5.30;;
8464;SDS011;4269;52.458;13.430;2022-08-19T11:59:08;6.37;;;4.23;;
8464;SDS011;4269;52.458;13.430;2022-08-19T12:01:35;5.47;;;3.97;;
8464;SDS011;4269;52.458;13.430;2022-08-19T12:04:01;4.57;;;3.77;;
8464;SDS011;4269;52.458;13.430;2022-08-19T12:06:30;5.90;;;3.77;;
8464;SDS011;4269;52.458;13.430;2022-08-19T12:08:59;4.53;;;3.73;;
8464;SDS011;4269;52.458;13.430;2022-08-19T12:11:28;5.93;;;4.60;;
8464;SDS011;4269;52.458;13.430;2022-08-19T12:13:54;4.93;;;3.87;;
8464;SDS011;4269;52.458;13.430;2022-08-19T12:16:22;6.00;;;4.07;;
8464;SDS011;4269;52.458;13.430;2022-08-19T12:18:50;5.73;;;3.77;;
8464;SDS011;4269;52.458;13.430;2022-08-19T12:21:17;9.43;;;4.93;;
8464;SDS011;4269;52.458;13.430;2022-08-19T12:23:50;5.23;;;3.67;;
8464;SDS011;4269;52.458;13.430;2022-08-19T12:26:16;6.00;;;3.40;;
8464;SDS011;4269;52.458;13.430;2022-08-19T12:28:42;4.30;;;3.90;;
8464;SDS011;4269;52.458;13.430;2022-08-19T12:31:08;6.37;;;3.80;;
8464;SDS011;4269;52.458;13.430;2022-08-19T12:33:36;8.93;;;3.80;;
8464;SDS011;4269;52.458;13.430;2022-08-19T12:36:04;4.37;;;3.73;;
8464;SDS011;4269;52.458;13.430;2022-08-19T12:38:31;3.23;;;2.90;;
8464;SDS011;4269;52.458;13.430;2022-08-19T12:40:59;5.47;;;4.03;;
8464;SDS011;4269;52.458;13.430;2022-08-19T12:43:25;4.67;;;3.07;;
8464;SDS011;4269;52.458;13.430;2022-08-19T12:45:51;7.63;;;3.50;;
8464;SDS011;4269;52.458;13.430;2022-08-19T12:48:17;3.20;;;2.90;;
8464;SDS011;4269;52.458;13.430;2022-08-19T12:50:44;5.60;;;3.50;;
8464;SDS011;4269;52.458;13.430;2022-08-19T12:53:13;3.27;;;2.83;;
8464;SDS011;4269;52.458;13.430;2022-08-19T12:55:39;3.90;;;2.90;;
8464;SDS011;4269;52.458;13.430;2022-08-19T12:58:05;5.55;;;4.60;;
8464;SDS011;4269;52.458;13.430;2022-08-19T13:00:31;3.97;;;3.10;;
8464;SDS011;4269;52.458;13.430;2022-08-19T13:02:58;3.92;;;3.25;;
8464;SDS011;4269;52.458;13.430;2022-08-19T13:05:26;4.00;;;3.25;;
8464;SDS011;4269;52.458;13.430;2022-08-19T13:07:54;3.47;;;3.00;;
8464;SDS011;4269;52.458;13.430;2022-08-19T13:10:23;3.67;;;3.00;;
8464;SDS011;4269;52.458;13.430;2022-08-19T13:12:50;4.15;;;3.75;;
8464;SDS011;4269;52.458;13.430;2022-08-19T13:15:21;3.37;;;3.07;;
8464;SDS011;4269;52.458;13.430;2022-08-19T13:17:48;5.43;;;3.43;;
8464;SDS011;4269;52.458;13.430;2022-08-19T13:20:15;3.57;;;2.63;;
8464;SDS011;4269;52.458;13.430;2022-08-19T13:22:43;3.37;;;3.07;;
8464;SDS011;4269;52.458;13.430;2022-08-19T13:25:10;4.97;;;3.20;;
8464;SDS011;4269;52.458;13.430;2022-08-19T13:27:37;4.15;;;3.65;;
8464;SDS011;4269;52.458;13.430;2022-08-19T13:30:04;5.10;;;3.50;;
8464;SDS011;4269;52.458;13.430;2022-08-19T13:32:50;6.00;;;3.80;;
8464;SDS011;4269;52.458;13.430;2022-08-19T13:35:34;5.53;;;3.90;;
8464;SDS011;4269;52.458;13.430;2022-08-19T13:38:00;4.93;;;3.70;;
8464;SDS011;4269;52.458;13.430;2022-08-19T13:40:29;5.27;;;3.93;;
8464;SDS011;4269;52.458;13.430;2022-08-19T13:42:58;3.60;;;3.30;;
8464;SDS011;4269;52.458;13.430;2022-08-19T13:45:25;4.57;;;3.80;;
8464;SDS011;4269;52.458;13.430;2022-08-19T13:47:53;5.00;;;4.13;;
8464;SDS011;4269;52.458;13.430;2022-08-19T13:50:22;6.33;;;3.63;;
8464;SDS011;4269;52.458;13.430;2022-08-19T13:52:51;5.77;;;3.73;;
8464;SDS011;4269;52.458;13.430;2022-08-19T13:55:17;7.07;;;4.20;;
8464;SDS011;4269;52.458;13.430;2022-08-19T13:57:43;5.97;;;3.93;;
8464;SDS011;4269;52.458;13.430;2022-08-19T14:00:13;12.47;;;4.07;;
8464;SDS011;4269;52.458;13.430;2022-08-19T14:02:43;5.20;;;4.17;;
8464;SDS011;4269;52.458;13.430;2022-08-19T14:05:12;4.13;;;3.20;;
8464;SDS011;4269;52.458;13.430;2022-08-19T14:07:43;5.77;;;3.97;;
8464;SDS011;4269;52.458;13.430;2022-08-19T14:10:10;5.27;;;3.77;;
8464;SDS011;4269;52.458;13.430;2022-08-19T14:12:37;5.50;;;4.13;;
8464;SDS011;4269;52.458;13.430;2022-08-19T14:18:28;4.83;;;4.03;;
8464;SDS011;4269;52.458;13.430;2022-08-19T14:20:54;6.53;;;4.63;;
8464;SDS011;4269;52.458;13.430;2022-08-19T14:23:20;4.70;;;4.00;;
8464;SDS011;4269;52.458;13.430;2022-08-19T14:25:49;8.87;;;4.83;;
8464;SDS011;4269;52.458;13.430;2022-08-19T14:28:15;6.50;;;4.13;;
8464;SDS011;4269;52.458;13.430;2022-08-19T14:30:41;3.63;;;3.30;;
8464;SDS011;4269;52.458;13.430;2022-08-19T14:33:09;6.27;;;3.93;;
8464;SDS011;4269;52.458;13.430;2022-08-19T14:35:35;4.17;;;3.37;;
8464;SDS011;4269;52.458;13.430;2022-08-19T14:38:05;5.57;;;3.80;;
8464;SDS011;4269;52.458;13.430;2022-08-19T14:40:31;5.07;;;3.20;;
8464;SDS011;4269;52.458;13.430;2022-08-19T14:43:02;5.03;;;4.27;;
8464;SDS011;4269;52.458;13.430;2022-08-19T14:45:30;3.60;;;3.17;;
8464;SDS011;4269;52.458;13.430;2022-08-19T14:47:58;6.43;;;3.47;;
8464;SDS011;4269;52.458;13.430;2022-08-19T14:50:25;5.17;;;3.67;;
8464;SDS011;4269;52.458;13.430;2022-08-19T14:52:57;6.23;;;3.97;;
8464;SDS011;4269;52.458;13.430;2022-08-19T14:55:28;4.23;;;3.37;;
8464;SDS011;4269;52.458;13.430;2022-08-19T14:57:54;5.97;;;3.70;;
8464;SDS011;4269;52.458;13.430;2022-08-19T15:00:20;6.60;;;4.07;;
8464;SDS011;4269;52.458;13.430;2022-08-19T15:02:49;6.43;;;3.77;;
8464;SDS011;4269;52.458;13.430;2022-08-19T15:05:16;5.13;;;3.90;;
8464;SDS011;4269;52.458;13.430;2022-08-19T15:07:42;4.90;;;4.03;;
8464;SDS011;4269;52.458;13.430;2022-08-19T15:10:09;7.40;;;4.37;;
8464;SDS011;4269;52.458;13.430;2022-08-19T15:12:39;6.27;;;4.07;;
8464;SDS011;4269;52.458;13.430;2022-08-19T15:15:05;4.63;;;3.00;;
8464;SDS011;4269;52.458;13.430;2022-08-19T15:17:33;3.63;;;3.23;;